KMTP/MTP METAR and TAF weather

Enter ICAO airport designator
Station Type Date Time Source
KMTP METAR 2021/06/24 06:54 UTC NOAA

KMTP 240654Z AUTO 00000KT 13/12 A3035 RMK AO1 SLP276 T01330117


Station Type Date Time Source
KMTP Decoded METAR 2021/06/24 06:54 UTC NOAA

MONTAUK AIRPORT, NY, United States (KMTP) 41-04N 071-55W 2M
Jun 24, 2021 - 02:54 AM EDT / 2021.06.24 0654 UTC
Wind: Calm:0
Temperature: 55.9 F (13.3 C)
Dew Point: 53.1 F (11.7 C)
Relative Humidity: 90%
Pressure (altimeter): 30.35 in. Hg (1027 hPa)
ob: KMTP 240654Z AUTO 00000KT 13/12 A3035 RMK AO1 SLP276 T01330117
cycle: 7

Station Type Date Time Source
KMTP TAF UTC NOAA

Error!

Example: see airport list